createdAt,value
2022-08-04T00:03:55.658Z,100871.16
2022-08-04T00:09:01.720Z,100879.59
2022-08-04T00:14:06.915Z,100887.78
2022-08-04T00:19:34.289Z,100887.59
2022-08-04T00:24:37.033Z,100881.63
2022-08-04T00:29:40.667Z,100882.09
2022-08-04T00:34:43.771Z,100881.78
2022-08-04T00:39:47.066Z,100873.94
2022-08-04T00:45:11.082Z,100874.78
2022-08-04T00:50:52.067Z,100876.41
2022-08-04T00:56:05.788Z,100875.59
2022-08-04T01:01:20.815Z,100874.16
2022-08-04T01:06:56.531Z,100867.94
2022-08-04T01:12:08.088Z,100870.22
2022-08-04T01:17:36.562Z,100874.16
2022-08-04T01:22:59.947Z,100871.84
2022-08-04T01:28:20.819Z,100877.03
2022-08-04T01:33:23.940Z,100875.44
2022-08-04T01:38:35.142Z,100861.44
2022-08-04T01:43:43.349Z,100867.44
2022-08-04T01:48:48.134Z,100860.31
2022-08-04T01:53:50.739Z,100867.75
2022-08-04T01:59:00.582Z,100855.22
2022-08-04T02:04:21.787Z,100866.63
2022-08-04T02:09:54.996Z,100859.94
2022-08-04T02:15:04.862Z,100863.84
2022-08-04T02:20:13.907Z,100855.06
2022-08-04T02:25:23.460Z,100854.19
2022-08-04T02:30:32.324Z,100852.25
2022-08-04T02:35:39.878Z,100836.50
2022-08-04T02:40:43.811Z,100849.69
2022-08-04T02:45:48.277Z,100850.34
2022-08-04T02:50:52.180Z,100844.16
2022-08-04T02:55:59.167Z,100842.53
2022-08-04T03:01:08.530Z,100840.34
2022-08-04T03:06:11.750Z,100836.63
2022-08-04T03:11:33.789Z,100845.22
2022-08-04T03:17:03.210Z,100847.59
2022-08-04T03:22:33.989Z,100858.09
2022-08-04T03:28:10.214Z,100858.56
2022-08-04T03:33:19.812Z,100853.38
2022-08-04T03:38:55.006Z,100856.81
2022-08-04T03:44:17.943Z,100856.47
2022-08-04T03:49:32.126Z,100859.44
2022-08-04T03:54:52.713Z,100860.63
2022-08-04T03:59:58.999Z,100865.50
2022-08-04T04:05:23.187Z,100859.84
2022-08-04T04:10:31.532Z,100862.41
2022-08-04T04:16:13.033Z,100868.44
2022-08-04T04:22:03.660Z,100872.97
2022-08-04T04:27:30.626Z,100866.84
2022-08-04T04:33:09.907Z,100877.09
2022-08-04T04:38:42.969Z,100874.19
2022-08-04T04:43:54.252Z,100875.81
2022-08-04T04:49:40.475Z,100876.38
2022-08-04T04:54:49.466Z,100881.22
2022-08-04T05:00:09.897Z,100880.66
2022-08-04T05:05:52.574Z,100865.72
2022-08-04T05:11:25.935Z,100887.59
2022-08-04T05:16:38.467Z,100875.38
2022-08-04T05:21:51.512Z,100878.16
2022-08-04T05:27:01.296Z,100869.88
2022-08-04T05:32:09.606Z,100883.31
2022-08-04T05:37:17.430Z,100875.69
2022-08-04T05:42:20.442Z,100873.81
2022-08-04T05:47:26.388Z,100875.50
2022-08-04T05:52:30.491Z,100877.72
2022-08-04T05:57:33.895Z,100886.31
2022-08-04T06:02:38.956Z,100879.28
2022-08-04T06:08:12.470Z,100878.72
2022-08-04T06:13:49.325Z,100874.81
2022-08-04T06:20:00.353Z,100888.09
2022-08-04T06:24:04.099Z,100893.66
2022-08-04T06:29:16.675Z,100887.00
2022-08-04T06:34:19.412Z,100886.31
2022-08-04T06:39:25.454Z,100885.50
2022-08-04T06:44:29.331Z,100885.94
2022-08-04T06:49:55.070Z,100886.25
2022-08-04T06:54:56.014Z,100883.19
2022-08-04T07:00:12.164Z,100882.81
2022-08-04T07:05:15.322Z,100874.00
2022-08-04T07:10:22.206Z,100877.16
2022-08-04T07:15:26.147Z,100875.50
2022-08-04T07:20:35.246Z,100877.81
2022-08-04T07:25:59.570Z,100871.19
2022-08-04T07:31:02.986Z,100874.41
2022-08-04T07:36:10.328Z,100883.50
2022-08-04T07:46:40.986Z,100872.22
2022-08-04T07:51:44.099Z,100869.03
2022-08-04T07:56:49.448Z,100872.97
2022-08-04T08:01:52.447Z,100865.34
2022-08-04T08:06:55.242Z,100869.34
2022-08-04T08:12:37.544Z,100874.56
2022-08-04T08:17:20.907Z,100861.34
2022-08-04T08:22:24.066Z,100868.25
2022-08-04T08:27:27.633Z,100858.66
2022-08-04T08:32:30.246Z,100866.72
2022-08-04T08:37:43.058Z,100871.53
2022-08-04T08:42:54.617Z,100863.53
2022-08-04T08:48:08.043Z,100864.78
2022-08-04T08:53:32.522Z,100859.53
2022-08-04T08:58:50.082Z,100864.31
2022-08-04T09:03:52.800Z,100861.09
2022-08-04T09:09:38.645Z,100850.75
2022-08-04T09:15:16.898Z,100866.38
2022-08-04T09:20:26.551Z,100857.91
2022-08-04T09:25:37.738Z,100861.91
2022-08-04T09:30:53.310Z,100851.41
2022-08-04T09:36:02.161Z,100858.97
2022-08-04T09:41:48.608Z,100851.19
2022-08-04T09:47:11.883Z,100848.88
2022-08-04T09:52:52.891Z,100846.50
2022-08-04T09:58:17.058Z,100847.72
2022-08-04T10:03:20.659Z,100845.66
2022-08-04T10:08:38.170Z,100838.44
2022-08-04T10:14:01.686Z,100829.00
2022-08-04T10:19:15.933Z,100836.63
2022-08-04T10:24:21.697Z,100827.34
2022-08-04T10:29:39.555Z,100820.72
2022-08-04T10:35:00.170Z,100827.03
2022-08-04T10:40:31.007Z,100810.94
2022-08-04T10:46:04.327Z,100822.91
2022-08-04T10:51:30.056Z,100811.69
2022-08-04T10:56:47.449Z,100796.47
2022-08-04T11:02:01.231Z,100811.59
2022-08-04T11:07:07.613Z,100811.41
2022-08-04T11:12:17.775Z,100812.88
2022-08-04T11:17:46.897Z,100810.28
2022-08-04T11:22:56.243Z,100809.09
2022-08-04T11:28:30.557Z,100806.34
2022-08-04T11:34:02.189Z,100802.94
2022-08-04T11:39:13.780Z,100801.44
2022-08-04T11:44:25.365Z,100802.50
2022-08-04T11:49:56.621Z,100795.63
2022-08-04T11:55:00.774Z,100798.13
2022-08-04T12:00:15.711Z,100801.78
2022-08-04T12:05:35.268Z,100788.19
2022-08-04T12:10:42.453Z,100784.66
2022-08-04T12:15:51.258Z,100795.00
2022-08-04T12:21:07.682Z,100794.19
2022-08-04T12:26:19.760Z,100786.13
2022-08-04T12:31:30.968Z,100793.00
2022-08-04T12:36:58.661Z,100784.06
2022-08-04T12:42:21.182Z,100781.75
2022-08-04T12:47:29.272Z,100776.91
2022-08-04T12:53:00.430Z,100772.31
2022-08-04T12:58:00.297Z,100770.25
2022-08-04T13:03:09.632Z,100770.22
2022-08-04T13:08:15.650Z,100764.13
2022-08-04T13:13:28.939Z,100766.81
2022-08-04T13:18:34.104Z,100762.59
2022-08-04T13:24:19.796Z,100759.22
2022-08-04T13:29:16.199Z,100759.28
2022-08-04T13:34:19.910Z,100752.84
2022-08-04T13:39:23.466Z,100748.03
2022-08-04T13:44:32.361Z,100735.91
2022-08-04T13:49:38.067Z,100744.31
2022-08-04T13:54:57.160Z,100724.28
2022-08-04T14:00:08.811Z,100732.59
2022-08-04T14:05:36.733Z,100727.66
2022-08-04T14:10:58.690Z,100730.47
2022-08-04T14:16:04.250Z,100727.06
2022-08-04T14:21:12.598Z,100722.00
2022-08-04T14:26:20.986Z,100722.13
2022-08-04T14:31:34.710Z,100709.69
2022-08-04T14:37:13.351Z,100712.78
2022-08-04T14:42:04.752Z,100708.22
2022-08-04T14:47:13.411Z,100699.72
2022-08-04T14:52:25.649Z,100694.06
2022-08-04T14:57:28.893Z,100690.59
2022-08-04T15:02:32.710Z,100693.94
2022-08-04T15:07:37.744Z,100703.22
2022-08-04T15:12:44.429Z,100688.94
2022-08-04T15:17:47.171Z,100689.09
2022-08-04T15:22:50.161Z,100688.13
2022-08-04T15:27:53.773Z,100674.09
2022-08-04T15:33:02.033Z,100667.16
2022-08-04T15:38:14.958Z,100662.78
2022-08-04T15:43:47.196Z,100684.28
2022-08-04T15:49:24.133Z,100684.75
2022-08-04T15:54:32.343Z,100671.84
2022-08-04T16:00:01.450Z,100671.91
2022-08-04T16:05:30.418Z,100669.56
2022-08-04T16:10:32.927Z,100666.72
2022-08-04T16:15:47.405Z,100672.97
2022-08-04T16:20:52.156Z,100666.78
2022-08-04T16:25:54.877Z,100667.78
2022-08-04T16:31:02.105Z,100654.22
2022-08-04T16:36:10.351Z,100664.63
2022-08-04T16:41:13.819Z,100666.72
2022-08-04T16:47:08.898Z,100667.81
2022-08-04T16:52:13.299Z,100668.47
2022-08-04T16:57:16.414Z,100666.22
2022-08-04T17:02:26.969Z,100659.97
2022-08-04T17:07:29.957Z,100655.00
2022-08-04T17:12:32.547Z,100667.59
2022-08-04T17:18:04.092Z,100673.78
2022-08-04T17:24:16.448Z,100671.88
2022-08-04T17:28:51.388Z,100669.78
2022-08-04T17:33:57.957Z,100665.78
2022-08-04T17:39:16.674Z,100672.00
2022-08-04T17:44:19.596Z,100683.22
2022-08-04T17:49:25.341Z,100686.38
2022-08-04T17:54:36.518Z,100670.22
2022-08-04T17:59:55.846Z,100678.19
2022-08-04T18:05:05.600Z,100678.81
2022-08-04T18:10:33.170Z,100683.06
2022-08-04T18:15:44.148Z,100676.81
2022-08-04T18:20:50.182Z,100686.19
2022-08-04T18:25:53.429Z,100690.44
2022-08-04T18:30:56.289Z,100688.19
2022-08-04T18:36:34.461Z,100689.09
2022-08-04T18:41:21.346Z,100696.44
2022-08-04T18:46:26.853Z,100700.28
2022-08-04T18:51:30.899Z,100687.13
2022-08-04T18:56:34.212Z,100694.09
2022-08-04T19:02:12.693Z,100691.06
2022-08-04T19:07:29.319Z,100703.72
2022-08-04T19:12:26.906Z,100708.25
2022-08-04T19:17:54.013Z,100703.56
2022-08-04T19:24:11.250Z,100709.06
2022-08-04T19:28:17.894Z,100722.13
2022-08-04T19:33:25.342Z,100715.03
2022-08-04T19:38:29.642Z,100715.47
2022-08-04T19:43:33.751Z,100721.09
2022-08-04T19:48:37.777Z,100715.59
2022-08-04T19:53:43.062Z,100727.44
2022-08-04T19:58:48.115Z,100715.09
2022-08-04T20:04:08.460Z,100725.78
2022-08-04T20:09:25.004Z,100719.78
2022-08-04T20:14:31.254Z,100717.91
2022-08-04T20:19:36.548Z,100723.44
2022-08-04T20:24:45.964Z,100726.50
2022-08-04T20:29:55.382Z,100726.63
2022-08-04T20:34:58.881Z,100737.50
2022-08-04T20:40:02.420Z,100733.72
2022-08-04T20:45:08.608Z,100732.91
2022-08-04T20:50:19.355Z,100731.13
2022-08-04T20:55:32.963Z,100732.63
2022-08-04T21:00:57.212Z,100719.53
2022-08-04T21:06:00.356Z,100731.09
2022-08-04T21:11:06.985Z,100732.00
2022-08-04T21:16:11.951Z,100732.63
2022-08-04T21:21:35.831Z,100738.25
2022-08-04T21:26:38.820Z,100738.00
2022-08-04T21:31:50.428Z,100746.41
2022-08-04T21:36:55.988Z,100730.16
2022-08-04T21:47:37.406Z,100735.84
2022-08-04T21:52:44.725Z,100731.03
2022-08-04T21:57:49.277Z,100729.38
2022-08-04T22:02:53.202Z,100727.09
2022-08-04T22:07:56.297Z,100722.97
2022-08-04T22:12:59.089Z,100728.75
2022-08-04T22:18:04.308Z,100721.03
2022-08-04T22:23:16.838Z,100729.75
2022-08-04T22:28:21.780Z,100728.25
2022-08-04T22:33:54.671Z,100731.38
2022-08-04T22:39:01.538Z,100729.75
2022-08-04T22:44:15.088Z,100724.22
2022-08-04T22:49:18.128Z,100722.97
2022-08-04T22:54:29.758Z,100728.41
2022-08-04T22:59:34.843Z,100716.84
2022-08-04T23:04:37.803Z,100726.22
2022-08-04T23:09:48.981Z,100714.28
2022-08-04T23:14:55.894Z,100700.09
2022-08-04T23:20:00.051Z,100710.25
2022-08-04T23:25:02.594Z,100703.16
2022-08-04T23:30:07.056Z,100697.34
2022-08-04T23:35:10.088Z,100692.63
2022-08-04T23:40:30.411Z,100696.06
2022-08-04T23:45:35.790Z,100689.69
2022-08-04T23:51:14.773Z,100688.63
2022-08-04T23:56:19.592Z,100680.44
